createdAt,value
2023-11-25T00:00:54.776Z,14.03
2023-11-25T00:03:22.022Z,14.02
2023-11-25T00:05:50.367Z,14.02
2023-11-25T00:08:18.090Z,14.02
2023-11-25T00:10:45.089Z,14.02
2023-11-25T00:13:12.105Z,14.03
2023-11-25T00:15:40.213Z,14.03
2023-11-25T00:18:07.844Z,14.03
2023-11-25T00:20:37.380Z,14.01
2023-11-25T00:23:04.541Z,14.00
2023-11-25T00:25:31.453Z,13.99
2023-11-25T00:27:58.242Z,13.98
2023-11-25T00:30:25.249Z,13.97
2023-11-25T00:32:53.027Z,13.98
2023-11-25T00:35:38.625Z,13.98
2023-11-25T00:38:09.428Z,13.97
2023-11-25T00:40:37.207Z,13.97
2023-11-25T00:43:04.774Z,13.95
2023-11-25T00:45:31.623Z,13.96
2023-11-25T00:47:58.510Z,13.96
2023-11-25T00:50:26.229Z,13.95
2023-11-25T00:52:53.280Z,13.95
2023-11-25T00:55:20.033Z,13.93
2023-11-25T00:57:47.262Z,13.91
2023-11-25T01:00:17.804Z,13.90
2023-11-25T01:02:45.501Z,13.89
2023-11-25T01:05:12.618Z,13.89
2023-11-25T01:07:39.537Z,13.87
2023-11-25T01:10:06.953Z,13.84
2023-11-25T01:12:36.149Z,13.85
2023-11-25T01:15:04.850Z,13.86
2023-11-25T01:17:31.642Z,13.88
2023-11-25T01:19:59.427Z,13.89
2023-11-25T01:22:27.097Z,13.88
2023-11-25T01:24:53.970Z,13.90
2023-11-25T01:27:22.105Z,13.91
2023-11-25T01:29:48.789Z,13.92
2023-11-25T01:32:15.609Z,13.92
2023-11-25T01:34:42.450Z,13.92
2023-11-25T01:37:09.857Z,13.92
2023-11-25T01:39:36.567Z,13.91
2023-11-25T01:42:03.564Z,13.89
2023-11-25T01:44:30.255Z,13.89
2023-11-25T01:46:57.138Z,13.88
2023-11-25T01:49:24.054Z,13.87
2023-11-25T01:51:52.801Z,13.85
2023-11-25T01:54:21.447Z,13.84
2023-11-25T01:56:52.683Z,13.83
2023-11-25T01:59:21.260Z,13.85
2023-11-25T02:01:48.328Z,13.85
2023-11-25T02:04:15.440Z,13.84
2023-11-25T02:06:42.467Z,13.82
2023-11-25T02:09:09.772Z,13.83
2023-11-25T02:12:02.889Z,13.81
2023-11-25T02:14:29.857Z,13.81
2023-11-25T02:16:58.427Z,13.81
2023-11-25T02:19:25.731Z,13.81
2023-11-25T02:21:53.573Z,13.78
2023-11-25T02:24:20.786Z,13.77
2023-11-25T02:26:47.996Z,13.76
2023-11-25T02:29:14.908Z,13.73
2023-11-25T02:31:43.767Z,13.70
2023-11-25T02:34:11.117Z,13.69
2023-11-25T02:36:39.670Z,13.67
2023-11-25T02:39:06.690Z,13.68
2023-11-25T02:41:33.757Z,13.67
2023-11-25T02:44:01.217Z,13.65
2023-11-25T02:46:28.908Z,13.63
2023-11-25T02:48:55.741Z,13.63
2023-11-25T02:51:22.981Z,13.64
2023-11-25T02:53:50.587Z,13.63
2023-11-25T02:56:17.511Z,13.63
2023-11-25T02:58:44.586Z,13.63
2023-11-25T03:01:15.027Z,13.62
2023-11-25T03:03:48.706Z,13.61
2023-11-25T03:06:17.413Z,13.61
2023-11-25T03:08:44.745Z,13.60
2023-11-25T03:11:16.932Z,13.59
2023-11-25T03:13:43.796Z,13.57
2023-11-25T03:16:11.787Z,13.55
2023-11-25T03:18:38.841Z,13.51
2023-11-25T03:21:06.436Z,13.48
2023-11-25T03:23:33.222Z,13.48
2023-11-25T03:26:00.158Z,13.44
2023-11-25T03:28:27.727Z,13.43
2023-11-25T03:30:55.323Z,13.43
2023-11-25T03:33:22.185Z,13.43
2023-11-25T03:35:49.018Z,13.42
2023-11-25T03:38:16.843Z,13.42
2023-11-25T03:40:43.651Z,13.40
2023-11-25T03:43:10.457Z,13.37
2023-11-25T03:45:37.195Z,13.32
2023-11-25T03:48:06.807Z,13.27
2023-11-25T03:50:34.080Z,13.22
2023-11-25T03:53:02.279Z,13.18
2023-11-25T03:55:29.156Z,13.14
2023-11-25T03:57:55.942Z,13.13
2023-11-25T04:00:23.676Z,13.10
2023-11-25T04:02:50.545Z,13.08
2023-11-25T04:05:20.241Z,13.06
2023-11-25T04:07:47.352Z,13.05
2023-11-25T04:10:15.019Z,13.03
2023-11-25T04:12:49.679Z,13.00
2023-11-25T04:15:20.946Z,12.96
2023-11-25T04:17:48.426Z,12.95
2023-11-25T04:20:18.914Z,12.93
2023-11-25T04:22:47.911Z,12.93
2023-11-25T04:25:16.889Z,12.92
2023-11-25T04:27:45.777Z,12.92
2023-11-25T04:30:13.198Z,12.93
2023-11-25T04:32:44.346Z,12.95
2023-11-25T04:35:11.425Z,12.96
2023-11-25T04:37:38.597Z,12.96
2023-11-25T04:40:06.623Z,12.96
2023-11-25T04:42:34.001Z,12.96
2023-11-25T04:45:01.140Z,12.96
2023-11-25T04:47:28.120Z,12.98
2023-11-25T04:49:55.238Z,12.98
2023-11-25T04:52:22.103Z,13.00
2023-11-25T04:54:50.153Z,13.00
2023-11-25T04:57:17.777Z,12.98
2023-11-25T04:59:44.533Z,12.97
2023-11-25T05:02:11.421Z,12.96
2023-11-25T05:04:38.338Z,12.96
2023-11-25T05:07:05.796Z,12.97
2023-11-25T05:09:33.196Z,12.96
2023-11-25T05:12:00.861Z,12.93
2023-11-25T05:14:27.982Z,12.88
2023-11-25T05:16:57.193Z,12.84
2023-11-25T05:19:24.292Z,12.82
2023-11-25T05:21:50.970Z,12.82
2023-11-25T05:24:17.876Z,12.82
2023-11-25T05:26:44.809Z,12.82
2023-11-25T05:29:11.585Z,12.78
2023-11-25T05:31:38.502Z,12.74
2023-11-25T05:34:06.550Z,12.70
2023-11-25T05:36:36.051Z,12.70
2023-11-25T05:39:03.429Z,12.70
2023-11-25T05:41:30.287Z,12.70
2023-11-25T05:43:58.704Z,12.69
2023-11-25T05:46:26.183Z,12.67
2023-11-25T05:48:54.365Z,12.67
2023-11-25T05:51:21.736Z,12.68
2023-11-25T05:53:48.507Z,12.67
2023-11-25T05:56:15.509Z,12.64
2023-11-25T05:58:42.351Z,12.60
2023-11-25T06:01:09.225Z,12.57
2023-11-25T06:03:36.099Z,12.52
2023-11-25T06:06:07.449Z,12.45
2023-11-25T06:08:34.246Z,12.40
2023-11-25T06:11:00.975Z,12.35
2023-11-25T06:13:27.729Z,12.31
2023-11-25T06:15:54.400Z,12.30
2023-11-25T06:18:22.095Z,12.28
2023-11-25T06:20:49.042Z,12.25
2023-11-25T06:23:16.132Z,12.22
2023-11-25T06:25:44.148Z,12.17
2023-11-25T06:28:14.584Z,12.11
2023-11-25T06:30:41.321Z,12.09
2023-11-25T06:33:08.273Z,12.05
2023-11-25T06:35:37.248Z,12.04
2023-11-25T06:38:05.452Z,12.02
2023-11-25T06:40:34.600Z,12.04
2023-11-25T06:43:01.810Z,12.10
2023-11-25T06:45:48.441Z,12.14
2023-11-25T06:48:18.958Z,12.14
2023-11-25T06:51:04.929Z,12.15
2023-11-25T06:53:33.907Z,12.17
2023-11-25T06:56:01.114Z,12.18
2023-11-25T06:58:28.904Z,12.21
2023-11-25T07:00:58.934Z,12.23
2023-11-25T07:03:25.793Z,12.25
2023-11-25T07:05:52.677Z,12.28
2023-11-25T07:08:19.492Z,12.31
2023-11-25T07:10:54.902Z,12.32
2023-11-25T07:13:41.544Z,12.33
2023-11-25T07:16:09.235Z,12.33
2023-11-25T07:18:36.363Z,12.34
2023-11-25T07:21:03.543Z,12.33
2023-11-25T07:23:30.249Z,12.32
2023-11-25T07:25:57.179Z,12.35
2023-11-25T07:28:24.126Z,12.39
2023-11-25T07:30:51.072Z,12.41
2023-11-25T07:33:17.869Z,12.44
2023-11-25T07:35:44.667Z,12.46
2023-11-25T07:38:11.610Z,12.48
2023-11-25T07:40:38.618Z,12.50
2023-11-25T07:43:05.474Z,12.52
2023-11-25T07:45:32.236Z,12.53
2023-11-25T07:47:59.491Z,12.53
2023-11-25T07:50:27.174Z,12.54
2023-11-25T07:52:54.395Z,12.55
2023-11-25T07:55:21.373Z,12.55
2023-11-25T07:57:49.332Z,12.56
2023-11-25T08:00:17.862Z,12.56
2023-11-25T08:02:45.779Z,12.58
2023-11-25T08:05:23.059Z,12.58
2023-11-25T08:07:54.629Z,12.57
2023-11-25T08:10:23.750Z,12.54
2023-11-25T08:12:50.610Z,12.52
2023-11-25T08:15:18.930Z,12.49
2023-11-25T08:17:45.928Z,12.48
2023-11-25T08:20:13.087Z,12.47
2023-11-25T08:22:40.534Z,12.47
2023-11-25T08:25:11.725Z,12.48
2023-11-25T08:27:39.174Z,12.50
2023-11-25T08:30:09.684Z,12.52
2023-11-25T08:32:41.470Z,12.53
2023-11-25T08:35:10.512Z,12.55
2023-11-25T08:37:39.714Z,12.56
2023-11-25T08:40:16.552Z,12.56
2023-11-25T08:42:45.532Z,12.58
2023-11-25T08:45:12.921Z,12.57
2023-11-25T08:47:42.908Z,12.58
2023-11-25T08:50:12.068Z,12.60
2023-11-25T08:52:40.461Z,12.61
2023-11-25T08:55:11.140Z,12.62
2023-11-25T08:57:38.685Z,12.64
2023-11-25T09:00:25.408Z,12.65
2023-11-25T09:02:53.604Z,12.67
2023-11-25T09:05:26.822Z,12.71
2023-11-25T09:07:56.427Z,12.74
2023-11-25T09:10:24.431Z,12.77
2023-11-25T09:12:53.902Z,12.81
2023-11-25T09:15:22.735Z,12.83
2023-11-25T09:17:49.743Z,12.87
2023-11-25T09:20:17.917Z,12.90
2023-11-25T09:22:44.812Z,12.93
2023-11-25T09:25:13.157Z,12.95
2023-11-25T09:27:59.376Z,12.98
2023-11-25T09:30:27.291Z,13.00
2023-11-25T09:32:54.866Z,13.03
2023-11-25T09:35:24.180Z,13.07
2023-11-25T09:37:51.918Z,13.08
2023-11-25T09:40:20.810Z,13.11
2023-11-25T09:42:48.985Z,13.15
2023-11-25T09:45:16.626Z,13.18
2023-11-25T09:47:45.303Z,13.21
2023-11-25T09:50:14.551Z,13.23
2023-11-25T09:52:53.501Z,13.27
2023-11-25T09:55:23.920Z,13.30
2023-11-25T09:57:55.261Z,13.32
2023-11-25T10:00:22.945Z,13.35
2023-11-25T10:02:54.499Z,13.37
2023-11-25T10:05:22.074Z,13.39
2023-11-25T10:07:49.034Z,13.41
2023-11-25T10:10:22.625Z,13.43
2023-11-25T10:12:50.336Z,13.48
2023-11-25T10:15:17.591Z,13.52
2023-11-25T10:17:45.830Z,13.54
2023-11-25T10:20:20.726Z,13.58
2023-11-25T10:22:54.768Z,13.61
2023-11-25T10:25:22.816Z,13.67
2023-11-25T10:27:52.505Z,13.73
2023-11-25T10:30:21.854Z,13.79
2023-11-25T10:32:55.807Z,13.85
2023-11-25T10:35:25.928Z,13.93
2023-11-25T10:37:53.118Z,14.00
2023-11-25T10:40:20.922Z,14.10
2023-11-25T10:42:47.780Z,14.20
2023-11-25T10:45:19.126Z,14.29
2023-11-25T10:47:46.299Z,14.36
2023-11-25T10:50:16.681Z,14.46
2023-11-25T10:52:44.939Z,14.55
2023-11-25T10:55:12.275Z,14.62
2023-11-25T10:57:39.351Z,14.70
2023-11-25T11:00:12.439Z,14.79
2023-11-25T11:02:45.079Z,14.88
2023-11-25T11:05:15.332Z,14.96
2023-11-25T11:07:55.901Z,15.04
2023-11-25T11:10:32.507Z,15.12
2023-11-25T11:13:09.265Z,15.18
2023-11-25T11:15:37.363Z,15.24
2023-11-25T11:18:17.643Z,15.29
2023-11-25T11:20:51.131Z,15.35
2023-11-25T11:23:20.596Z,15.42
2023-11-25T11:26:00.995Z,15.47
2023-11-25T11:28:39.821Z,15.53
2023-11-25T11:31:44.105Z,15.59
2023-11-25T11:34:11.162Z,15.66
2023-11-25T11:36:37.872Z,15.70
2023-11-25T11:39:04.719Z,15.74
2023-11-25T11:41:31.509Z,15.80
2023-11-25T11:44:06.244Z,15.85
2023-11-25T11:46:43.767Z,15.89
2023-11-25T11:49:13.457Z,15.93
2023-11-25T11:52:01.611Z,15.98
2023-11-25T11:54:29.713Z,16.03
2023-11-25T11:57:08.697Z,16.08
2023-11-25T12:00:01.792Z,16.14
2023-11-25T12:02:32.582Z,16.17
2023-11-25T12:05:00.851Z,16.21
2023-11-25T12:07:28.556Z,16.23
2023-11-25T12:09:57.580Z,16.25
2023-11-25T12:12:25.310Z,16.28
2023-11-25T12:14:54.359Z,16.30
2023-11-25T12:17:22.803Z,16.33
2023-11-25T12:19:53.543Z,16.35
2023-11-25T12:22:20.580Z,16.38
2023-11-25T12:24:47.321Z,16.40
2023-11-25T12:27:15.830Z,16.42
2023-11-25T12:29:42.474Z,16.45
2023-11-25T12:32:09.373Z,16.46
2023-11-25T12:34:36.845Z,16.48
2023-11-25T12:37:03.917Z,16.51
2023-11-25T12:39:30.636Z,16.51
2023-11-25T12:41:57.402Z,16.54
2023-11-25T12:44:24.717Z,16.56
2023-11-25T12:47:03.126Z,16.58
2023-11-25T12:49:50.890Z,16.60
2023-11-25T12:52:25.865Z,16.59
2023-11-25T12:54:54.087Z,16.61
2023-11-25T12:57:26.929Z,16.61
2023-11-25T12:59:53.720Z,16.63
2023-11-25T13:02:21.308Z,16.64
2023-11-25T13:04:52.170Z,16.65
2023-11-25T13:07:35.900Z,16.65
2023-11-25T13:10:04.972Z,16.67
2023-11-25T13:12:32.924Z,16.68
2023-11-25T13:14:59.884Z,16.69
2023-11-25T13:17:26.934Z,16.72
2023-11-25T13:19:54.199Z,16.72
2023-11-25T13:22:21.052Z,16.73
2023-11-25T13:24:47.863Z,16.73
2023-11-25T13:27:14.739Z,16.74
2023-11-25T13:29:45.669Z,16.76
2023-11-25T13:32:12.497Z,16.79
2023-11-25T13:34:42.428Z,16.81
2023-11-25T13:37:09.428Z,16.82
2023-11-25T13:39:37.034Z,16.82
2023-11-25T13:42:05.965Z,16.82
2023-11-25T13:44:33.037Z,16.82
2023-11-25T13:47:00.147Z,16.83
2023-11-25T13:49:30.356Z,16.84
2023-11-25T13:51:57.972Z,16.86
2023-11-25T13:54:27.544Z,16.86
2023-11-25T13:56:56.984Z,16.86
2023-11-25T13:59:24.191Z,16.86
2023-11-25T14:01:51.149Z,16.87
2023-11-25T14:04:17.950Z,16.86
2023-11-25T14:06:44.640Z,16.85
2023-11-25T14:09:18.745Z,16.85
2023-11-25T14:11:45.954Z,16.85
2023-11-25T14:14:13.597Z,16.85
2023-11-25T14:16:40.810Z,16.83
2023-11-25T14:19:08.199Z,16.82
2023-11-25T14:21:35.024Z,16.82
2023-11-25T14:24:01.695Z,16.80
2023-11-25T14:26:28.504Z,16.79
2023-11-25T14:28:55.549Z,16.76
2023-11-25T14:31:23.336Z,16.73
2023-11-25T14:33:50.228Z,16.70
2023-11-25T14:36:17.149Z,16.67
2023-11-25T14:38:43.903Z,16.65
2023-11-25T14:41:10.783Z,16.63
2023-11-25T14:43:37.556Z,16.59
2023-11-25T14:46:04.604Z,16.57
2023-11-25T14:48:31.445Z,16.53
2023-11-25T14:50:58.184Z,16.51
2023-11-25T14:53:25.020Z,16.47
2023-11-25T14:55:52.002Z,16.44
2023-11-25T14:58:18.774Z,16.43
2023-11-25T15:00:46.467Z,16.40
2023-11-25T15:03:13.524Z,16.38
2023-11-25T15:05:40.678Z,16.33
2023-11-25T15:08:08.374Z,16.30
2023-11-25T15:10:35.745Z,16.27
2023-11-25T15:13:02.549Z,16.23
2023-11-25T15:15:29.719Z,16.19
2023-11-25T15:17:56.489Z,16.18
2023-11-25T15:20:24.053Z,16.15
2023-11-25T15:22:52.241Z,16.14
2023-11-25T15:25:19.260Z,16.13
2023-11-25T15:27:46.193Z,16.14
2023-11-25T15:30:13.742Z,16.12
2023-11-25T15:32:43.586Z,16.11
2023-11-25T15:35:11.563Z,16.08
2023-11-25T15:37:38.473Z,16.06
2023-11-25T15:40:06.084Z,16.03
2023-11-25T15:42:33.361Z,16.01
2023-11-25T15:45:00.297Z,15.99
2023-11-25T15:47:27.105Z,15.97
2023-11-25T15:49:54.582Z,15.96
2023-11-25T15:52:21.376Z,15.95
2023-11-25T15:54:48.238Z,15.94
2023-11-25T15:57:15.026Z,15.92
2023-11-25T15:59:45.129Z,15.90
2023-11-25T16:02:12.336Z,15.87
2023-11-25T16:04:39.707Z,15.85
2023-11-25T16:07:11.809Z,15.83
2023-11-25T16:09:40.092Z,15.82
2023-11-25T16:12:07.450Z,15.79
2023-11-25T16:14:34.771Z,15.79
2023-11-25T16:17:01.626Z,15.79
2023-11-25T16:19:28.376Z,15.77
2023-11-25T16:21:57.491Z,15.73
2023-11-25T16:24:27.763Z,15.71
2023-11-25T16:26:54.559Z,15.68
2023-11-25T16:29:21.354Z,15.66
2023-11-25T16:31:48.181Z,15.66
2023-11-25T16:34:14.987Z,15.65
2023-11-25T16:36:42.203Z,15.63
2023-11-25T16:39:11.242Z,15.63
2023-11-25T16:41:38.710Z,15.61
2023-11-25T16:44:06.138Z,15.61
2023-11-25T16:46:33.732Z,15.59
2023-11-25T16:49:07.412Z,15.58
2023-11-25T16:51:35.955Z,15.57
2023-11-25T16:54:02.758Z,15.55
2023-11-25T16:56:29.653Z,15.54
2023-11-25T16:58:56.366Z,15.53
2023-11-25T17:01:23.214Z,15.51
2023-11-25T17:03:50.347Z,15.48
2023-11-25T17:06:17.323Z,15.46
2023-11-25T17:08:46.171Z,15.43
2023-11-25T17:11:13.000Z,15.43
2023-11-25T17:13:39.814Z,15.40
2023-11-25T17:16:06.626Z,15.38
2023-11-25T17:18:33.516Z,15.38
2023-11-25T17:21:02.520Z,15.35
2023-11-25T17:23:29.246Z,15.35
2023-11-25T17:25:56.024Z,15.34
2023-11-25T17:28:23.890Z,15.30
2023-11-25T17:30:50.723Z,15.28
2023-11-25T17:33:17.489Z,15.25
2023-11-25T17:35:44.401Z,15.22
2023-11-25T17:38:11.347Z,15.20
2023-11-25T17:40:38.159Z,15.17
2023-11-25T17:43:05.639Z,15.15
2023-11-25T17:45:32.489Z,15.11
2023-11-25T17:47:59.270Z,15.11
2023-11-25T17:50:28.770Z,15.08
2023-11-25T17:53:06.914Z,15.05
2023-11-25T17:55:39.385Z,15.04
2023-11-25T17:58:06.572Z,15.03
2023-11-25T18:00:33.480Z,14.99
2023-11-25T18:03:05.980Z,14.99
2023-11-25T18:05:32.818Z,14.98
2023-11-25T18:07:59.518Z,14.96
2023-11-25T18:10:28.963Z,14.94
2023-11-25T18:12:56.564Z,14.93
2023-11-25T18:15:23.704Z,14.91
2023-11-25T18:17:50.802Z,14.90
2023-11-25T18:20:17.649Z,14.89
2023-11-25T18:22:44.546Z,14.88
2023-11-25T18:25:11.644Z,14.87
2023-11-25T18:27:39.415Z,14.86
2023-11-25T18:30:06.934Z,14.85
2023-11-25T18:32:33.763Z,14.83
2023-11-25T18:35:02.054Z,14.80
2023-11-25T18:37:29.369Z,14.78
2023-11-25T18:39:56.188Z,14.77
2023-11-25T18:42:22.926Z,14.73
2023-11-25T18:44:49.708Z,14.70
2023-11-25T18:47:16.473Z,14.67
2023-11-25T18:49:43.250Z,14.64
2023-11-25T18:52:10.099Z,14.63
2023-11-25T18:54:37.004Z,14.61
2023-11-25T18:57:03.932Z,14.58
2023-11-25T18:59:30.673Z,14.57
2023-11-25T19:01:57.458Z,14.55
2023-11-25T19:04:24.326Z,14.53
2023-11-25T19:06:51.893Z,14.52
2023-11-25T19:09:18.829Z,14.50
2023-11-25T19:11:46.940Z,14.48
2023-11-25T19:14:16.538Z,14.45
2023-11-25T19:16:43.440Z,14.42
2023-11-25T19:19:11.005Z,14.40
2023-11-25T19:21:37.891Z,14.39
2023-11-25T19:24:05.150Z,14.37
2023-11-25T19:26:31.955Z,14.35
2023-11-25T19:28:58.744Z,14.34
2023-11-25T19:31:25.573Z,14.32
2023-11-25T19:33:54.066Z,14.31
2023-11-25T19:36:20.974Z,14.30
2023-11-25T19:38:47.686Z,14.29
2023-11-25T19:41:17.187Z,14.28
2023-11-25T19:43:46.228Z,14.26
2023-11-25T19:46:16.050Z,14.23
2023-11-25T19:48:46.430Z,14.23
2023-11-25T19:51:13.167Z,14.21
2023-11-25T19:53:50.225Z,14.19
2023-11-25T19:56:22.023Z,14.18
2023-11-25T19:58:48.909Z,14.19
2023-11-25T20:01:15.749Z,14.18
2023-11-25T20:03:44.779Z,14.17
2023-11-25T20:06:12.167Z,14.18
2023-11-25T20:08:38.893Z,14.16
2023-11-25T20:11:05.955Z,14.13
2023-11-25T20:13:32.742Z,14.13
2023-11-25T20:15:59.715Z,14.10
2023-11-25T20:18:26.647Z,14.09
2023-11-25T20:20:53.918Z,14.08
2023-11-25T20:23:21.173Z,14.07
2023-11-25T20:25:48.162Z,14.05
2023-11-25T20:28:15.177Z,14.05
2023-11-25T20:30:43.033Z,14.04
2023-11-25T20:33:10.981Z,14.01
2023-11-25T20:35:37.790Z,14.01
2023-11-25T20:38:05.969Z,14.00
2023-11-25T20:40:32.862Z,14.00
2023-11-25T20:42:59.839Z,13.98
2023-11-25T20:45:26.584Z,13.96
2023-11-25T20:47:53.818Z,13.95
2023-11-25T20:50:20.961Z,13.93
2023-11-25T20:52:47.992Z,13.91
2023-11-25T20:55:15.091Z,13.91
2023-11-25T20:57:41.902Z,13.89
2023-11-25T21:00:13.415Z,13.86
2023-11-25T21:02:40.827Z,13.84
2023-11-25T21:05:08.035Z,13.82
2023-11-25T21:07:34.822Z,13.80
2023-11-25T21:10:01.668Z,13.78
2023-11-25T21:12:28.394Z,13.77
2023-11-25T21:14:55.401Z,13.73
2023-11-25T21:17:22.847Z,13.72
2023-11-25T21:19:49.614Z,13.68
2023-11-25T21:22:19.599Z,13.65
2023-11-25T21:24:46.336Z,13.63
2023-11-25T21:27:13.658Z,13.61
2023-11-25T21:29:40.415Z,13.59
2023-11-25T21:32:09.520Z,13.56
2023-11-25T21:34:37.064Z,13.52
2023-11-25T21:37:05.548Z,13.50
2023-11-25T21:39:32.658Z,13.45
2023-11-25T21:41:59.381Z,13.41
2023-11-25T21:44:26.206Z,13.38
2023-11-25T21:46:53.249Z,13.34
2023-11-25T21:49:20.197Z,13.32
2023-11-25T21:51:46.849Z,13.30
2023-11-25T21:54:14.149Z,13.26
2023-11-25T21:56:40.936Z,13.23
2023-11-25T21:59:07.887Z,13.20
2023-11-25T22:01:34.683Z,13.19
2023-11-25T22:04:02.397Z,13.15
2023-11-25T22:06:29.326Z,13.14
2023-11-25T22:08:57.685Z,13.12
2023-11-25T22:11:24.803Z,13.10
2023-11-25T22:13:52.102Z,13.08
2023-11-25T22:16:19.348Z,13.06
2023-11-25T22:18:46.446Z,13.05
2023-11-25T22:21:13.437Z,13.02
2023-11-25T22:23:42.105Z,13.00
2023-11-25T22:26:19.556Z,12.99
2023-11-25T22:28:46.701Z,12.99
2023-11-25T22:31:16.938Z,12.98
2023-11-25T22:33:44.719Z,12.98
2023-11-25T22:36:24.873Z,12.96
2023-11-25T22:38:55.400Z,12.96
2023-11-25T22:41:22.885Z,12.95
2023-11-25T22:43:52.070Z,12.92
2023-11-25T22:46:22.983Z,12.92
2023-11-25T22:48:51.522Z,12.92
2023-11-25T22:51:20.540Z,12.93
2023-11-25T22:53:47.386Z,12.94
2023-11-25T22:56:14.798Z,12.95
2023-11-25T22:58:41.824Z,12.98
2023-11-25T23:01:13.486Z,12.99
2023-11-25T23:03:40.589Z,13.01
2023-11-25T23:06:10.184Z,13.03
2023-11-25T23:08:38.201Z,13.04
2023-11-25T23:11:05.254Z,13.06
2023-11-25T23:13:32.062Z,13.07
2023-11-25T23:15:59.706Z,13.09
2023-11-25T23:18:26.550Z,13.12
2023-11-25T23:20:53.412Z,13.12
2023-11-25T23:23:20.563Z,13.12
2023-11-25T23:25:49.213Z,13.14
2023-11-25T23:28:17.843Z,13.14
2023-11-25T23:30:44.629Z,13.12
2023-11-25T23:33:11.502Z,13.12
2023-11-25T23:35:38.378Z,13.09
2023-11-25T23:38:05.549Z,13.09
2023-11-25T23:40:32.300Z,13.08
2023-11-25T23:42:59.072Z,13.08
2023-11-25T23:45:27.202Z,13.07
2023-11-25T23:47:54.061Z,13.06
2023-11-25T23:50:20.867Z,13.08
2023-11-25T23:52:47.726Z,13.09
2023-11-25T23:55:14.486Z,13.10
2023-11-25T23:57:41.195Z,13.12
